Chiloquin, OR

3:48 PM PST on February 12, 2016 (GMT -0800)
RAWS | | Change Station
CLOSE
Current Station
Personal Weather Station
Location: Sprague River, OR
Elevation: 4419 ft
Nearby Weather Stations

Elev 4419 ft 42.58 °N, 121.89 °W | Updated 52 minutes ago

Scattered Clouds
Scattered Clouds
56.0 °F
Feels Like 56.0 °F
N
5.0
Wind Variable Wind from WSW
Gusts 11.0 mph

Today
High -- | Low -- °F
--% Chance of Precip.
Yesterday
High -- | Low -- °F
Precip. -- in
Pressure 30.14 in
Visibility 10.0 miles
Clouds Few 3000 ft
Scattered Clouds 20000 ft
Dew Point 37.0 °F
Humidity 49%
Rainfall in
Snow Depth Not available.
7:08 AM 5:35 PM
Waxing Crescent, 24% visible
METAR KLMT 122253Z 30012KT 10SM FEW030 SCT200 15/03 A3016 RMK AO2 SLP204 T01500033
Pressure 30.14 in
Visibility 10.0 miles
Clouds Few 3000 ft
Scattered Clouds 20000 ft
Dew Point 37.0 °F
Humidity 49%
Rainfall in
Snow Depth Not available.
7:08 AM 5:35 PM
Waxing Crescent, 24% visible
METAR KLMT 122253Z 30012KT 10SM FEW030 SCT200 15/03 A3016 RMK AO2 SLP204 T01500033

10-Day Weather Forecast

Almanac

Astronomy

Feb. 12, 2016 Rise Set
Actual Time
Civil Twilight
Nautical Twilight
Astronomical Twilight
Moon
Length of Visible Light
Length of Day
Tomorrow will be .
, % of the Moon is Illuminated

Today's Extremes

State Highs State Lows

Community

WunderPhotos

Upload Photos

1,892,437 photos uploaded!

WunderBlog® & News

Nearby

Air Quality

  Air Quality AQ Index Pollutant
Not available.

Snow Depth

Station Depth Elevation

Earthquake Activity

City Distance Mag. Time & Date
Minimum magnitude displayed is 2.5.

Coastal Water Temperatures

Place Temperature

Stations

Nearby Weather Stations

Station Location Temp. Windchill Dew Point Humidity Wind Precip. Elev Updated Type
                   

Watches & Warnings

There are currently no watches in effect.